sensor_id;sensor_type;location;lat;lon;timestamp;pressure;altitude;pressure_sealevel;temperature;humidity
49627;BME280;35527;54.616;39.786;2022-12-18T00:02:35;99071.56;;;-0.37;100.00
49627;BME280;35527;54.616;39.786;2022-12-18T00:05:51;99065.56;;;-0.22;100.00
49627;BME280;35527;54.616;39.786;2022-12-18T00:08:59;99057.91;;;-0.22;100.00
49627;BME280;35527;54.616;39.786;2022-12-18T00:12:03;99050.28;;;-0.24;100.00
49627;BME280;35527;54.616;39.786;2022-12-18T00:15:06;99058.78;;;-0.25;100.00
49627;BME280;35527;54.616;39.786;2022-12-18T00:18:11;99035.09;;;-0.30;100.00
49627;BME280;35527;54.616;39.786;2022-12-18T00:21:18;99030.75;;;-0.19;100.00
49627;BME280;35527;54.616;39.786;2022-12-18T00:24:21;99065.56;;;-0.27;100.00
49627;BME280;35527;54.616;39.786;2022-12-18T00:27:24;99026.53;;;-0.23;100.00
49627;BME280;35527;54.616;39.786;2022-12-18T00:30:31;99018.13;;;-0.28;100.00
49627;BME280;35527;54.616;39.786;2022-12-18T00:33:35;98996.13;;;-0.32;100.00
49627;BME280;35527;54.616;39.786;2022-12-18T00:36:38;99005.41;;;-0.30;100.00
49627;BME280;35527;54.616;39.786;2022-12-18T00:39:42;98997.78;;;-0.28;100.00
49627;BME280;35527;54.616;39.786;2022-12-18T00:42:46;98987.50;;;-0.17;100.00
49627;BME280;35527;54.616;39.786;2022-12-18T00:45:59;98969.72;;;-0.17;100.00
49627;BME280;35527;54.616;39.786;2022-12-18T00:49:02;98967.16;;;-0.17;100.00
49627;BME280;35527;54.616;39.786;2022-12-18T00:52:06;98977.31;;;-0.11;100.00
49627;BME280;35527;54.616;39.786;2022-12-18T00:55:13;98961.25;;;-0.16;100.00
49627;BME280;35527;54.616;39.786;2022-12-18T00:58:16;98973.03;;;-0.09;100.00
49627;BME280;35527;54.616;39.786;2022-12-18T01:01:19;98959.41;;;-0.04;100.00
49627;BME280;35527;54.616;39.786;2022-12-18T01:04:25;98947.53;;;0.00;100.00
49627;BME280;35527;54.616;39.786;2022-12-18T01:07:30;98940.78;;;-0.03;100.00
49627;BME280;35527;54.616;39.786;2022-12-18T01:10:40;98939.94;;;-0.05;100.00
49627;BME280;35527;54.616;39.786;2022-12-18T01:13:43;98935.69;;;-0.03;100.00
49627;BME280;35527;54.616;39.786;2022-12-18T01:16:47;98950.88;;;0.04;100.00
49627;BME280;35527;54.616;39.786;2022-12-18T01:19:53;98930.56;;;0.01;100.00
49627;BME280;35527;54.616;39.786;2022-12-18T01:22:57;98933.06;;;0.04;100.00
49627;BME280;35527;54.616;39.786;2022-12-18T01:26:10;98941.44;;;0.15;100.00
49627;BME280;35527;54.616;39.786;2022-12-18T01:29:14;98937.22;;;0.11;100.00
49627;BME280;35527;54.616;39.786;2022-12-18T01:32:46;98895.63;;;0.15;100.00
49627;BME280;35527;54.616;39.786;2022-12-18T01:35:49;98907.41;;;0.22;100.00
49627;BME280;35527;54.616;39.786;2022-12-18T01:38:53;98906.56;;;0.23;100.00
49627;BME280;35527;54.616;39.786;2022-12-18T01:42:00;98892.13;;;0.24;100.00
49627;BME280;35527;54.616;39.786;2022-12-18T01:48:18;98882.84;;;0.21;100.00
49627;BME280;35527;54.616;39.786;2022-12-18T01:51:23;98869.25;;;0.22;100.00
49627;BME280;35527;54.616;39.786;2022-12-18T01:54:28;98858.28;;;0.17;100.00
49627;BME280;35527;54.616;39.786;2022-12-18T01:57:58;98841.34;;;0.17;100.00
49627;BME280;35527;54.616;39.786;2022-12-18T02:01:01;98853.97;;;0.24;100.00
49627;BME280;35527;54.616;39.786;2022-12-18T02:04:23;98858.06;;;0.34;100.00
49627;BME280;35527;54.616;39.786;2022-12-18T02:11:37;98820.84;;;0.25;100.00
49627;BME280;35527;54.616;39.786;2022-12-18T02:14:54;98841.13;;;0.31;100.00
49627;BME280;35527;54.616;39.786;2022-12-18T02:18:09;98821.72;;;0.24;100.00
49627;BME280;35527;54.616;39.786;2022-12-18T02:21:40;98814.09;;;0.24;100.00
49627;BME280;35527;54.616;39.786;2022-12-18T02:28:16;98821.56;;;0.36;100.00
49627;BME280;35527;54.616;39.786;2022-12-18T02:31:28;98813.00;;;0.42;100.00
49627;BME280;35527;54.616;39.786;2022-12-18T02:34:36;98803.66;;;0.42;100.00
49627;BME280;35527;54.616;39.786;2022-12-18T02:37:48;98806.97;;;0.49;100.00
49627;BME280;35527;54.616;39.786;2022-12-18T02:40:53;98812.69;;;0.62;100.00
49627;BME280;35527;54.616;39.786;2022-12-18T02:44:01;98802.50;;;0.63;100.00
49627;BME280;35527;54.616;39.786;2022-12-18T02:47:13;98798.25;;;0.64;100.00
49627;BME280;35527;54.616;39.786;2022-12-18T02:50:29;98811.66;;;0.75;100.00
49627;BME280;35527;54.616;39.786;2022-12-18T02:53:42;98787.19;;;0.66;100.00
49627;BME280;35527;54.616;39.786;2022-12-18T02:57:18;98809.91;;;0.77;100.00
49627;BME280;35527;54.616;39.786;2022-12-18T03:00:30;98793.91;;;0.71;100.00
49627;BME280;35527;54.616;39.786;2022-12-18T03:03:43;98796.50;;;0.67;100.00
49627;BME280;35527;54.616;39.786;2022-12-18T03:06:50;98798.41;;;0.55;100.00
49627;BME280;35527;54.616;39.786;2022-12-18T03:09:58;98797.44;;;0.62;100.00
49627;BME280;35527;54.616;39.786;2022-12-18T03:13:46;98786.31;;;0.67;100.00
49627;BME280;35527;54.616;39.786;2022-12-18T03:17:00;98779.50;;;0.68;100.00
49627;BME280;35527;54.616;39.786;2022-12-18T03:20:10;98782.09;;;0.66;100.00
49627;BME280;35527;54.616;39.786;2022-12-18T03:23:24;98780.44;;;0.64;100.00
49627;BME280;35527;54.616;39.786;2022-12-18T03:26:29;98774.59;;;0.57;100.00
49627;BME280;35527;54.616;39.786;2022-12-18T03:29:49;98785.56;;;0.61;100.00
49627;BME280;35527;54.616;39.786;2022-12-18T03:33:02;98795.88;;;0.53;100.00
49627;BME280;35527;54.616;39.786;2022-12-18T03:36:11;98783.28;;;0.42;100.00
49627;BME280;35527;54.616;39.786;2022-12-18T03:39:13;98784.84;;;0.53;100.00
49627;BME280;35527;54.616;39.786;2022-12-18T03:42:32;98774.66;;;0.53;100.00
49627;BME280;35527;54.616;39.786;2022-12-18T03:45:52;98786.66;;;0.46;100.00
49627;BME280;35527;54.616;39.786;2022-12-18T03:49:04;98776.53;;;0.43;100.00
49627;BME280;35527;54.616;39.786;2022-12-18T03:52:20;98788.31;;;0.45;100.00
49627;BME280;35527;54.616;39.786;2022-12-18T03:55:32;98794.34;;;0.43;100.00
49627;BME280;35527;54.616;39.786;2022-12-18T03:58:41;98779.91;;;0.43;100.00
49627;BME280;35527;54.616;39.786;2022-12-18T04:01:57;98782.41;;;0.45;100.00
49627;BME280;35527;54.616;39.786;2022-12-18T04:05:03;98781.56;;;0.46;100.00
49627;BME280;35527;54.616;39.786;2022-12-18T04:08:08;98776.53;;;0.40;100.00
49627;BME280;35527;54.616;39.786;2022-12-18T04:11:22;98778.09;;;0.49;100.00
49627;BME280;35527;54.616;39.786;2022-12-18T04:14:25;98779.03;;;0.44;100.00
49627;BME280;35527;54.616;39.786;2022-12-18T04:17:32;98775.59;;;0.45;100.00
49627;BME280;35527;54.616;39.786;2022-12-18T04:20:35;98788.28;;;0.50;100.00
49627;BME280;35527;54.616;39.786;2022-12-18T04:23:45;98787.41;;;0.51;100.00
49627;BME280;35527;54.616;39.786;2022-12-18T04:26:48;98778.97;;;0.48;100.00
49627;BME280;35527;54.616;39.786;2022-12-18T04:29:59;98767.22;;;0.39;100.00
49627;BME280;35527;54.616;39.786;2022-12-18T04:33:26;98768.00;;;0.42;100.00
49627;BME280;35527;54.616;39.786;2022-12-18T04:36:31;98782.19;;;0.59;100.00
49627;BME280;35527;54.616;39.786;2022-12-18T04:39:34;98802.47;;;0.66;100.00
49627;BME280;35527;54.616;39.786;2022-12-18T04:42:44;98808.34;;;0.68;100.00
49627;BME280;35527;54.616;39.786;2022-12-18T04:45:48;98810.09;;;0.65;100.00
49627;BME280;35527;54.616;39.786;2022-12-18T04:48:54;98803.31;;;0.65;100.00
49627;BME280;35527;54.616;39.786;2022-12-18T04:51:57;98789.06;;;0.54;100.00
49627;BME280;35527;54.616;39.786;2022-12-18T04:55:01;98800.84;;;0.59;100.00
49627;BME280;35527;54.616;39.786;2022-12-18T04:58:29;98808.63;;;0.52;100.00
49627;BME280;35527;54.616;39.786;2022-12-18T05:01:33;98810.34;;;0.48;100.00
49627;BME280;35527;54.616;39.786;2022-12-18T05:05:06;98812.06;;;0.48;100.00
49627;BME280;35527;54.616;39.786;2022-12-18T05:08:10;98826.50;;;0.47;100.00
49627;BME280;35527;54.616;39.786;2022-12-18T05:11:17;98835.81;;;0.48;100.00
49627;BME280;35527;54.616;39.786;2022-12-18T05:14:21;98832.47;;;0.46;100.00
49627;BME280;35527;54.616;39.786;2022-12-18T05:17:24;98833.41;;;0.39;100.00
49627;BME280;35527;54.616;39.786;2022-12-18T05:20:29;98836.78;;;0.39;100.00
49627;BME280;35527;54.616;39.786;2022-12-18T05:23:35;98855.38;;;0.46;100.00
49627;BME280;35527;54.616;39.786;2022-12-18T05:26:43;98865.47;;;0.52;100.00
49627;BME280;35527;54.616;39.786;2022-12-18T05:29:48;98860.50;;;0.43;100.00
49627;BME280;35527;54.616;39.786;2022-12-18T05:32:51;98854.69;;;0.33;100.00
49627;BME280;35527;54.616;39.786;2022-12-18T05:36:03;98874.19;;;0.33;100.00
49627;BME280;35527;54.616;39.786;2022-12-18T05:39:07;98871.78;;;0.22;100.00
49627;BME280;35527;54.616;39.786;2022-12-18T05:42:09;98873.69;;;0.06;100.00
49627;BME280;35527;54.616;39.786;2022-12-18T05:45:14;98894.13;;;-0.03;100.00
49627;BME280;35527;54.616;39.786;2022-12-18T05:48:20;98909.47;;;-0.11;100.00
49627;BME280;35527;54.616;39.786;2022-12-18T05:51:27;98913.91;;;-0.30;100.00
49627;BME280;35527;54.616;39.786;2022-12-18T05:54:32;98898.06;;;-0.56;100.00
49627;BME280;35527;54.616;39.786;2022-12-18T05:57:35;98922.75;;;-0.72;100.00
49627;BME280;35527;54.616;39.786;2022-12-18T06:01:08;98927.06;;;-0.82;100.00
49627;BME280;35527;54.616;39.786;2022-12-18T06:04:14;98938.13;;;-0.91;100.00
49627;BME280;35527;54.616;39.786;2022-12-18T06:07:19;98937.41;;;-1.13;100.00
49627;BME280;35527;54.616;39.786;2022-12-18T06:10:25;98954.41;;;-1.24;100.00
49627;BME280;35527;54.616;39.786;2022-12-18T06:13:29;98947.69;;;-1.32;100.00
49627;BME280;35527;54.616;39.786;2022-12-18T06:16:36;98963.75;;;-1.27;100.00
49627;BME280;35527;54.616;39.786;2022-12-18T06:19:39;98964.63;;;-1.36;100.00
49627;BME280;35527;54.616;39.786;2022-12-18T06:22:44;98998.47;;;-1.31;100.00
49627;BME280;35527;54.616;39.786;2022-12-18T06:25:50;98998.50;;;-1.37;100.00
49627;BME280;35527;54.616;39.786;2022-12-18T06:28:57;99015.38;;;-1.34;100.00
49627;BME280;35527;54.616;39.786;2022-12-18T06:32:01;99034.84;;;-1.38;100.00
49627;BME280;35527;54.616;39.786;2022-12-18T06:35:04;99036.56;;;-1.40;100.00
49627;BME280;35527;54.616;39.786;2022-12-18T06:38:08;99034.91;;;-1.56;100.00
49627;BME280;35527;54.616;39.786;2022-12-18T06:41:14;99045.13;;;-1.86;100.00
49627;BME280;35527;54.616;39.786;2022-12-18T06:44:17;99040.91;;;-2.07;100.00
49627;BME280;35527;54.616;39.786;2022-12-18T06:47:21;99063.75;;;-2.05;100.00
49627;BME280;35527;54.616;39.786;2022-12-18T06:50:24;99065.41;;;-2.10;100.00
49627;BME280;35527;54.616;39.786;2022-12-18T06:53:35;99070.47;;;-2.04;100.00
49627;BME280;35527;54.616;39.786;2022-12-18T06:56:38;99079.78;;;-2.15;100.00
49627;BME280;35527;54.616;39.786;2022-12-18T06:59:42;99093.28;;;-2.15;100.00
49627;BME280;35527;54.616;39.786;2022-12-18T07:02:45;99100.03;;;-2.32;100.00
49627;BME280;35527;54.616;39.786;2022-12-18T07:05:53;99104.25;;;-2.36;100.00
49627;BME280;35527;54.616;39.786;2022-12-18T07:08:57;99103.41;;;-2.45;100.00
49627;BME280;35527;54.616;39.786;2022-12-18T07:12:02;99108.47;;;-2.48;100.00
49627;BME280;35527;54.616;39.786;2022-12-18T07:15:07;99110.97;;;-2.61;100.00
49627;BME280;35527;54.616;39.786;2022-12-18T07:18:10;99139.69;;;-2.50;100.00
49627;BME280;35527;54.616;39.786;2022-12-18T07:21:16;99140.53;;;-2.54;100.00
49627;BME280;35527;54.616;39.786;2022-12-18T07:24:19;99140.56;;;-2.41;100.00
49627;BME280;35527;54.616;39.786;2022-12-18T07:27:24;99137.16;;;-2.62;100.00
49627;BME280;35527;54.616;39.786;2022-12-18T07:30:29;99142.16;;;-2.76;100.00
49627;BME280;35527;54.616;39.786;2022-12-18T07:33:32;99171.75;;;-2.62;100.00
49627;BME280;35527;54.616;39.786;2022-12-18T07:36:37;99178.50;;;-2.58;100.00
49627;BME280;35527;54.616;39.786;2022-12-18T07:39:45;99164.97;;;-2.68;100.00
49627;BME280;35527;54.616;39.786;2022-12-18T07:42:54;99178.50;;;-2.64;100.00
49627;BME280;35527;54.616;39.786;2022-12-18T07:45:58;99182.66;;;-2.79;100.00
49627;BME280;35527;54.616;39.786;2022-12-18T07:49:00;99200.41;;;-2.76;100.00
49627;BME280;35527;54.616;39.786;2022-12-18T07:52:07;99220.63;;;-2.85;100.00
49627;BME280;35527;54.616;39.786;2022-12-18T07:55:12;99237.47;;;-2.88;100.00
49627;BME280;35527;54.616;39.786;2022-12-18T07:58:16;99211.34;;;-2.86;100.00
49627;BME280;35527;54.616;39.786;2022-12-18T08:01:21;99221.44;;;-2.87;100.00
49627;BME280;35527;54.616;39.786;2022-12-18T08:04:25;99223.91;;;-2.95;100.00
49627;BME280;35527;54.616;39.786;2022-12-18T08:07:30;99227.34;;;-2.84;100.00
49627;BME280;35527;54.616;39.786;2022-12-18T08:10:33;99251.75;;;-2.95;100.00
49627;BME280;35527;54.616;39.786;2022-12-18T08:13:37;99265.22;;;-3.02;100.00
49627;BME280;35527;54.616;39.786;2022-12-18T08:16:44;99283.81;;;-3.03;100.00
49627;BME280;35527;54.616;39.786;2022-12-18T08:19:48;99272.78;;;-3.07;100.00
49627;BME280;35527;54.616;39.786;2022-12-18T08:22:51;99282.91;;;-3.08;100.00
49627;BME280;35527;54.616;39.786;2022-12-18T08:25:54;99264.28;;;-3.20;100.00
49627;BME280;35527;54.616;39.786;2022-12-18T08:28:58;99279.44;;;-3.20;100.00
49627;BME280;35527;54.616;39.786;2022-12-18T08:32:07;99302.34;;;-3.06;100.00
49627;BME280;35527;54.616;39.786;2022-12-18T08:35:10;99286.31;;;-3.05;100.00
49627;BME280;35527;54.616;39.786;2022-12-18T08:38:16;99321.63;;;-3.19;100.00
49627;BME280;35527;54.616;39.786;2022-12-18T08:41:22;99320.72;;;-3.24;100.00
49627;BME280;35527;54.616;39.786;2022-12-18T08:44:27;99333.41;;;-3.21;100.00
49627;BME280;35527;54.616;39.786;2022-12-18T08:47:42;99330.81;;;-3.30;100.00
49627;BME280;35527;54.616;39.786;2022-12-18T08:50:56;99335.88;;;-3.27;100.00
49627;BME280;35527;54.616;39.786;2022-12-18T08:53:59;99334.84;;;-3.50;100.00
49627;BME280;35527;54.616;39.786;2022-12-18T08:57:08;99348.44;;;-3.39;100.00
49627;BME280;35527;54.616;39.786;2022-12-18T09:00:12;99355.19;;;-3.38;100.00
49627;BME280;35527;54.616;39.786;2022-12-18T09:03:17;99361.22;;;-3.25;100.00
49627;BME280;35527;54.616;39.786;2022-12-18T09:06:24;99313.84;;;-3.42;100.00
49627;BME280;35527;54.616;39.786;2022-12-18T09:09:28;99347.72;;;-3.24;100.00
49627;BME280;35527;54.616;39.786;2022-12-18T09:12:32;99341.91;;;-3.17;100.00
49627;BME280;35527;54.616;39.786;2022-12-18T09:15:49;99369.66;;;-3.25;100.00
49627;BME280;35527;54.616;39.786;2022-12-18T09:18:55;99333.19;;;-3.47;100.00
49627;BME280;35527;54.616;39.786;2022-12-18T09:22:04;99366.16;;;-3.36;100.00
49627;BME280;35527;54.616;39.786;2022-12-18T09:25:07;99374.44;;;-3.52;100.00
49627;BME280;35527;54.616;39.786;2022-12-18T09:28:17;99385.38;;;-3.53;100.00
49627;BME280;35527;54.616;39.786;2022-12-18T09:31:24;99386.06;;;-3.68;100.00
49627;BME280;35527;54.616;39.786;2022-12-18T09:34:28;99415.00;;;-3.45;100.00
49627;BME280;35527;54.616;39.786;2022-12-18T09:37:31;99421.75;;;-3.41;100.00
49627;BME280;35527;54.616;39.786;2022-12-18T09:40:42;99427.78;;;-3.29;100.00
49627;BME280;35527;54.616;39.786;2022-12-18T09:44:39;99411.69;;;-3.39;100.00
49627;BME280;35527;54.616;39.786;2022-12-18T09:47:47;99438.47;;;-3.55;100.00
49627;BME280;35527;54.616;39.786;2022-12-18T09:50:51;99435.09;;;-3.57;100.00
49627;BME280;35527;54.616;39.786;2022-12-18T09:54:04;99450.53;;;-3.34;100.00
49627;BME280;35527;54.616;39.786;2022-12-18T09:57:18;99444.56;;;-3.39;100.00
49627;BME280;35527;54.616;39.786;2022-12-18T10:00:30;99434.22;;;-3.59;100.00
49627;BME280;35527;54.616;39.786;2022-12-18T10:03:33;99441.03;;;-3.53;100.00
49627;BME280;35527;54.616;39.786;2022-12-18T10:07:02;99443.31;;;-3.73;100.00
49627;BME280;35527;54.616;39.786;2022-12-18T10:10:23;99462.88;;;-3.58;100.00
49627;BME280;35527;54.616;39.786;2022-12-18T10:16:51;99480.38;;;-3.75;100.00
49627;BME280;35527;54.616;39.786;2022-12-18T10:23:42;99487.91;;;-3.80;100.00
49627;BME280;35527;54.616;39.786;2022-12-18T10:26:52;99459.78;;;-4.01;100.00
49627;BME280;35527;54.616;39.786;2022-12-18T10:29:57;99481.06;;;-3.89;100.00
49627;BME280;35527;54.616;39.786;2022-12-18T10:33:02;99497.94;;;-3.86;100.00
49627;BME280;35527;54.616;39.786;2022-12-18T10:36:13;99511.25;;;-3.96;100.00
49627;BME280;35527;54.616;39.786;2022-12-18T10:39:24;99517.03;;;-4.05;100.00
49627;BME280;35527;54.616;39.786;2022-12-18T10:42:29;99529.63;;;-4.08;100.00
49627;BME280;35527;54.616;39.786;2022-12-18T10:45:32;99523.63;;;-4.15;100.00
49627;BME280;35527;54.616;39.786;2022-12-18T10:51:47;99537.06;;;-4.16;100.00
49627;BME280;35527;54.616;39.786;2022-12-18T10:55:02;99558.34;;;-4.01;100.00
49627;BME280;35527;54.616;39.786;2022-12-18T11:01:56;99555.81;;;-4.03;100.00
49627;BME280;35527;54.616;39.786;2022-12-18T11:05:03;99547.38;;;-4.03;100.00
49627;BME280;35527;54.616;39.786;2022-12-18T11:08:20;99560.91;;;-4.00;100.00
49627;BME280;35527;54.616;39.786;2022-12-18T11:11:25;99553.31;;;-4.01;100.00
49627;BME280;35527;54.616;39.786;2022-12-18T11:14:34;99556.72;;;-3.99;100.00
49627;BME280;35527;54.616;39.786;2022-12-18T11:17:50;99560.84;;;-4.04;100.00
49627;BME280;35527;54.616;39.786;2022-12-18T11:21:06;99544.75;;;-4.11;100.00
49627;BME280;35527;54.616;39.786;2022-12-18T11:24:26;99547.00;;;-4.28;100.00
49627;BME280;35527;54.616;39.786;2022-12-18T11:27:33;99559.53;;;-4.34;100.00
49627;BME280;35527;54.616;39.786;2022-12-18T11:30:37;99579.00;;;-4.27;100.00
49627;BME280;35527;54.616;39.786;2022-12-18T11:33:43;99571.28;;;-4.36;100.00
49627;BME280;35527;54.616;39.786;2022-12-18T11:37:02;99599.94;;;-4.34;100.00
49627;BME280;35527;54.616;39.786;2022-12-18T11:40:37;99613.63;;;-4.23;100.00
49627;BME280;35527;54.616;39.786;2022-12-18T11:43:55;99599.78;;;-4.43;100.00
49627;BME280;35527;54.616;39.786;2022-12-18T11:47:21;99622.63;;;-4.36;100.00
49627;BME280;35527;54.616;39.786;2022-12-18T11:50:52;99636.09;;;-4.37;100.00
49627;BME280;35527;54.616;39.786;2022-12-18T11:54:21;99624.22;;;-4.42;100.00
49627;BME280;35527;54.616;39.786;2022-12-18T12:00:29;99643.38;;;-4.54;100.00
49627;BME280;35527;54.616;39.786;2022-12-18T12:07:11;99669.63;;;-4.44;100.00
49627;BME280;35527;54.616;39.786;2022-12-18T12:17:51;99673.72;;;-4.52;100.00
49627;BME280;35527;54.616;39.786;2022-12-18T12:21:20;99679.56;;;-4.55;100.00
49627;BME280;35527;54.616;39.786;2022-12-18T12:35:07;99694.25;;;-4.78;100.00
49627;BME280;35527;54.616;39.786;2022-12-18T12:38:21;99703.66;;;-4.69;100.00
49627;BME280;35527;54.616;39.786;2022-12-18T12:41:31;99697.69;;;-4.72;100.00
49627;BME280;35527;54.616;39.786;2022-12-18T12:44:55;99697.72;;;-4.71;100.00
49627;BME280;35527;54.616;39.786;2022-12-18T12:48:02;99701.81;;;-4.78;100.00
49627;BME280;35527;54.616;39.786;2022-12-18T12:51:22;99716.28;;;-4.69;100.00
49627;BME280;35527;54.616;39.786;2022-12-18T12:54:31;99712.03;;;-4.71;100.00
49627;BME280;35527;54.616;39.786;2022-12-18T12:57:51;99710.94;;;-4.83;100.00
49627;BME280;35527;54.616;39.786;2022-12-18T13:04:34;99738.59;;;-4.87;100.00
49627;BME280;35527;54.616;39.786;2022-12-18T13:07:45;99722.50;;;-4.94;100.00
49627;BME280;35527;54.616;39.786;2022-12-18T13:10:49;99747.84;;;-4.88;100.00
49627;BME280;35527;54.616;39.786;2022-12-18T13:14:33;99758.06;;;-4.82;100.00
49627;BME280;35527;54.616;39.786;2022-12-18T13:17:37;99772.31;;;-4.85;100.00
49627;BME280;35527;54.616;39.786;2022-12-18T13:20:43;99761.44;;;-4.83;100.00
49627;BME280;35527;54.616;39.786;2022-12-18T13:23:50;99785.88;;;-4.80;100.00
49627;BME280;35527;54.616;39.786;2022-12-18T13:26:54;99779.13;;;-4.81;100.00
49627;BME280;35527;54.616;39.786;2022-12-18T13:29:58;99790.81;;;-4.85;100.00
49627;BME280;35527;54.616;39.786;2022-12-18T13:39:51;99805.97;;;-4.85;100.00
49627;BME280;35527;54.616;39.786;2022-12-18T13:42:55;99803.19;;;-4.95;100.00
49627;BME280;35527;54.616;39.786;2022-12-18T13:46:47;99835.53;;;-4.81;100.00
49627;BME280;35527;54.616;39.786;2022-12-18T13:50:26;99841.31;;;-4.85;100.00
49627;BME280;35527;54.616;39.786;2022-12-18T13:53:43;99839.50;;;-4.90;100.00
49627;BME280;35527;54.616;39.786;2022-12-18T13:56:48;99830.84;;;-5.00;100.00
49627;BME280;35527;54.616;39.786;2022-12-18T13:59:51;99842.72;;;-4.96;100.00
49627;BME280;35527;54.616;39.786;2022-12-18T14:02:55;99838.44;;;-4.99;100.00
49627;BME280;35527;54.616;39.786;2022-12-18T14:06:03;99808.44;;;-5.23;100.00
49627;BME280;35527;54.616;39.786;2022-12-18T14:09:13;99840.00;;;-5.04;100.00
49627;BME280;35527;54.616;39.786;2022-12-18T14:12:25;99852.81;;;-4.96;100.00
49627;BME280;35527;54.616;39.786;2022-12-18T14:15:51;99859.31;;;-5.06;100.00
49627;BME280;35527;54.616;39.786;2022-12-18T14:18:55;99871.03;;;-5.08;100.00
49627;BME280;35527;54.616;39.786;2022-12-18T14:22:03;99880.28;;;-5.07;100.00
49627;BME280;35527;54.616;39.786;2022-12-18T14:28:18;99887.69;;;-5.14;100.00
49627;BME280;35527;54.616;39.786;2022-12-18T14:31:25;99909.03;;;-5.02;100.00
49627;BME280;35527;54.616;39.786;2022-12-18T14:34:28;99910.50;;;-5.10;100.00
49627;BME280;35527;54.616;39.786;2022-12-18T14:37:32;99915.59;;;-5.08;100.00
49627;BME280;35527;54.616;39.786;2022-12-18T14:40:38;99927.44;;;-5.06;100.00
49627;BME280;35527;54.616;39.786;2022-12-18T14:43:47;99903.84;;;-5.08;100.00
49627;BME280;35527;54.616;39.786;2022-12-18T14:46:52;99925.00;;;-5.03;100.00
49627;BME280;35527;54.616;39.786;2022-12-18T14:49:55;99911.31;;;-5.11;100.00
49627;BME280;35527;54.616;39.786;2022-12-18T14:53:03;99923.16;;;-5.08;100.00
49627;BME280;35527;54.616;39.786;2022-12-18T14:56:15;99927.38;;;-5.09;100.00
49627;BME280;35527;54.616;39.786;2022-12-18T14:59:23;99917.28;;;-5.07;100.00
49627;BME280;35527;54.616;39.786;2022-12-18T15:02:28;99928.06;;;-5.14;100.00
49627;BME280;35527;54.616;39.786;2022-12-18T15:05:33;99913.56;;;-5.22;100.00
49627;BME280;35527;54.616;39.786;2022-12-18T15:08:42;99899.94;;;-5.28;100.00
49627;BME280;35527;54.616;39.786;2022-12-18T15:11:46;99935.28;;;-5.27;100.00
49627;BME280;35527;54.616;39.786;2022-12-18T15:14:49;99930.94;;;-5.32;100.00
49627;BME280;35527;54.616;39.786;2022-12-18T15:21:10;99961.66;;;-5.15;100.00
49627;BME280;35527;54.616;39.786;2022-12-18T15:24:23;99979.53;;;-5.08;100.00
49627;BME280;35527;54.616;39.786;2022-12-18T15:27:33;99959.81;;;-5.21;100.00
49627;BME280;35527;54.616;39.786;2022-12-18T15:30:38;99977.53;;;-5.19;100.00
49627;BME280;35527;54.616;39.786;2022-12-18T15:36:59;99974.94;;;-5.23;100.00
49627;BME280;35527;54.616;39.786;2022-12-18T15:40:03;99998.78;;;-5.11;100.00
49627;BME280;35527;54.616;39.786;2022-12-18T15:43:08;99983.41;;;-5.21;100.00
49627;BME280;35527;54.616;39.786;2022-12-18T15:46:37;100004.06;;;-5.02;100.00
49627;BME280;35527;54.616;39.786;2022-12-18T15:49:41;100005.69;;;-5.04;100.00
49627;BME280;35527;54.616;39.786;2022-12-18T15:52:46;100004.88;;;-5.03;100.00
49627;BME280;35527;54.616;39.786;2022-12-18T15:55:52;100000.56;;;-5.07;100.00
49627;BME280;35527;54.616;39.786;2022-12-18T15:59:16;100000.63;;;-5.04;100.00
49627;BME280;35527;54.616;39.786;2022-12-18T16:02:20;100004.81;;;-5.06;100.00
49627;BME280;35527;54.616;39.786;2022-12-18T16:05:26;99993.72;;;-5.11;100.00
49627;BME280;35527;54.616;39.786;2022-12-18T16:08:55;99994.44;;;-5.15;100.00
49627;BME280;35527;54.616;39.786;2022-12-18T16:12:05;100001.25;;;-5.13;100.00
49627;BME280;35527;54.616;39.786;2022-12-18T16:15:14;100015.28;;;-5.23;100.00
49627;BME280;35527;54.616;39.786;2022-12-18T16:18:21;100013.59;;;-5.24;100.00
49627;BME280;35527;54.616;39.786;2022-12-18T16:21:34;100020.84;;;-5.34;100.00
49627;BME280;35527;54.616;39.786;2022-12-18T16:24:38;100044.63;;;-5.26;100.00
49627;BME280;35527;54.616;39.786;2022-12-18T16:27:42;100040.06;;;-5.38;100.00
49627;BME280;35527;54.616;39.786;2022-12-18T16:30:44;100046.91;;;-5.34;100.00
49627;BME280;35527;54.616;39.786;2022-12-18T16:37:22;100064.59;;;-5.32;100.00
49627;BME280;35527;54.616;39.786;2022-12-18T16:40:25;100069.78;;;-5.28;100.00
49627;BME280;35527;54.616;39.786;2022-12-18T16:43:29;100074.84;;;-5.28;100.00
49627;BME280;35527;54.616;39.786;2022-12-18T16:46:32;100070.38;;;-5.36;100.00
49627;BME280;35527;54.616;39.786;2022-12-18T16:49:36;100067.94;;;-5.33;100.00
49627;BME280;35527;54.616;39.786;2022-12-18T16:52:43;100103.53;;;-5.24;100.00
49627;BME280;35527;54.616;39.786;2022-12-18T16:55:53;100090.72;;;-5.32;100.00
49627;BME280;35527;54.616;39.786;2022-12-18T16:59:26;100110.81;;;-5.33;100.00
49627;BME280;35527;54.616;39.786;2022-12-18T17:02:30;100097.13;;;-5.41;100.00
49627;BME280;35527;54.616;39.786;2022-12-18T17:05:35;100120.22;;;-5.29;100.00
49627;BME280;35527;54.616;39.786;2022-12-18T17:08:38;100098.06;;;-5.38;100.00
49627;BME280;35527;54.616;39.786;2022-12-18T17:11:43;100097.38;;;-5.32;100.00
49627;BME280;35527;54.616;39.786;2022-12-18T17:14:46;100110.66;;;-5.39;100.00
49627;BME280;35527;54.616;39.786;2022-12-18T17:17:50;100122.53;;;-5.35;100.00
49627;BME280;35527;54.616;39.786;2022-12-18T17:20:58;100124.06;;;-5.40;100.00
49627;BME280;35527;54.616;39.786;2022-12-18T17:24:02;100144.44;;;-5.34;100.00
49627;BME280;35527;54.616;39.786;2022-12-18T17:27:08;100149.47;;;-5.34;100.00
49627;BME280;35527;54.616;39.786;2022-12-18T17:30:11;100148.75;;;-5.30;100.00